<?xml version="1.0" encoding="UTF-8" standalone="no" ?>
<gpx xmlns="http://www.topografix.com/GPX/1/1" xmlns:xsi="http://www.w3.org/2001/XMLSchema-instance" xsi:schemaLocation="http://www.topografix.com/GPX/1/1 http://www.topografix.com/GPX/1/1/gpx.xsd" version="1.1" creator="VisuGPX - https://www.visugpx.com">
  <metadata>
    <name>13899374-Cap Coz.1</name>
  </metadata>
  <trk>
    <name><![CDATA[13899374-Cap Coz.1]]></name>
    <trkseg>
      <trkpt lat="47.88849" lon="-3.9818">
        <ele>7</ele>
        <time>2021-11-16T16:11:35Z</time>
      </trkpt>
      <trkpt lat="47.88907" lon="-3.9821">
        <ele>3</ele>
        <time>2021-11-16T16:12:24Z</time>
      </trkpt>
      <trkpt lat="47.88923" lon="-3.98247">
        <ele>2</ele>
        <time>2021-11-16T16:12:48Z</time>
      </trkpt>
      <trkpt lat="47.88976" lon="-3.9837">
        <ele>2</ele>
        <time>2021-11-16T16:14:06Z</time>
      </trkpt>
      <trkpt lat="47.8899" lon="-3.98419">
        <ele>3</ele>
        <time>2021-11-16T16:14:35Z</time>
      </trkpt>
      <trkpt lat="47.88997" lon="-3.98509">
        <ele>4</ele>
        <time>2021-11-16T16:15:24Z</time>
      </trkpt>
      <trkpt lat="47.89046" lon="-3.98687">
        <ele>5</ele>
        <time>2021-11-16T16:17:07Z</time>
      </trkpt>
      <trkpt lat="47.89059" lon="-3.98696">
        <ele>5</ele>
        <time>2021-11-16T16:17:18Z</time>
      </trkpt>
      <trkpt lat="47.89064" lon="-3.98705">
        <ele>6</ele>
        <time>2021-11-16T16:17:25Z</time>
      </trkpt>
      <trkpt lat="47.89102" lon="-3.98749">
        <ele>7</ele>
        <time>2021-11-16T16:18:03Z</time>
      </trkpt>
      <trkpt lat="47.89177" lon="-3.98783">
        <ele>4</ele>
        <time>2021-11-16T16:19:06Z</time>
      </trkpt>
      <trkpt lat="47.89347" lon="-3.98889">
        <ele>1</ele>
        <time>2021-11-16T16:21:33Z</time>
      </trkpt>
      <trkpt lat="47.89319" lon="-3.98947">
        <ele>3</ele>
        <time>2021-11-16T16:22:12Z</time>
      </trkpt>
      <trkpt lat="47.89318" lon="-3.98974">
        <ele>3</ele>
        <time>2021-11-16T16:22:26Z</time>
      </trkpt>
      <trkpt lat="47.89343" lon="-3.99028">
        <ele>3</ele>
        <time>2021-11-16T16:23:02Z</time>
      </trkpt>
      <trkpt lat="47.89395" lon="-3.99097">
        <ele>4</ele>
        <time>2021-11-16T16:23:57Z</time>
      </trkpt>
      <trkpt lat="47.89448" lon="-3.99145">
        <ele>6</ele>
        <time>2021-11-16T16:24:47Z</time>
      </trkpt>
      <trkpt lat="47.89472" lon="-3.99165">
        <ele>7</ele>
        <time>2021-11-16T16:25:09Z</time>
      </trkpt>
      <trkpt lat="47.89523" lon="-3.99164">
        <ele>5</ele>
        <time>2021-11-16T16:25:50Z</time>
      </trkpt>
      <trkpt lat="47.89638" lon="-3.99225">
        <ele>8</ele>
        <time>2021-11-16T16:27:27Z</time>
      </trkpt>
      <trkpt lat="47.89869" lon="-3.99409">
        <ele>6</ele>
        <time>2021-11-16T16:30:57Z</time>
      </trkpt>
      <trkpt lat="47.89872" lon="-3.9943">
        <ele>6</ele>
        <time>2021-11-16T16:31:09Z</time>
      </trkpt>
      <trkpt lat="47.89846" lon="-3.9953">
        <ele>7</ele>
        <time>2021-11-16T16:32:06Z</time>
      </trkpt>
      <trkpt lat="47.8983" lon="-3.99627">
        <ele>7</ele>
        <time>2021-11-16T16:33:00Z</time>
      </trkpt>
      <trkpt lat="47.89832" lon="-3.99742">
        <ele>6</ele>
        <time>2021-11-16T16:34:02Z</time>
      </trkpt>
      <trkpt lat="47.89858" lon="-3.99865">
        <ele>10</ele>
        <time>2021-11-16T16:35:11Z</time>
      </trkpt>
      <trkpt lat="47.89892" lon="-3.99976">
        <ele>8</ele>
        <time>2021-11-16T16:36:16Z</time>
      </trkpt>
      <trkpt lat="47.89904" lon="-4.00101">
        <ele>8</ele>
        <time>2021-11-16T16:37:24Z</time>
      </trkpt>
      <trkpt lat="47.89963" lon="-4.001">
        <ele>9</ele>
        <time>2021-11-16T16:38:11Z</time>
      </trkpt>
      <trkpt lat="47.90022" lon="-4.00075">
        <ele>10</ele>
        <time>2021-11-16T16:39:01Z</time>
      </trkpt>
      <trkpt lat="47.90104" lon="-4.00028">
        <ele>12</ele>
        <time>2021-11-16T16:40:11Z</time>
      </trkpt>
      <trkpt lat="47.90126" lon="-4.00059">
        <ele>12</ele>
        <time>2021-11-16T16:40:35Z</time>
      </trkpt>
      <trkpt lat="47.90118" lon="-4.00105">
        <ele>12</ele>
        <time>2021-11-16T16:41:01Z</time>
      </trkpt>
      <trkpt lat="47.90125" lon="-4.00144">
        <ele>12</ele>
        <time>2021-11-16T16:41:22Z</time>
      </trkpt>
      <trkpt lat="47.9011" lon="-4.00193">
        <ele>14</ele>
        <time>2021-11-16T16:41:51Z</time>
      </trkpt>
      <trkpt lat="47.90158" lon="-4.00337">
        <ele>13</ele>
        <time>2021-11-16T16:43:18Z</time>
      </trkpt>
      <trkpt lat="47.90199" lon="-4.00406">
        <ele>13</ele>
        <time>2021-11-16T16:44:07Z</time>
      </trkpt>
      <trkpt lat="47.90177" lon="-4.00468">
        <ele>17</ele>
        <time>2021-11-16T16:44:45Z</time>
      </trkpt>
      <trkpt lat="47.90176" lon="-4.00467">
        <ele>18</ele>
        <time>2021-11-16T16:44:46Z</time>
      </trkpt>
      <trkpt lat="47.902" lon="-4.00406">
        <ele>13</ele>
        <time>2021-11-16T16:45:24Z</time>
      </trkpt>
      <trkpt lat="47.90153" lon="-4.0033">
        <ele>13</ele>
        <time>2021-11-16T16:46:19Z</time>
      </trkpt>
      <trkpt lat="47.90138" lon="-4.00275">
        <ele>14</ele>
        <time>2021-11-16T16:46:51Z</time>
      </trkpt>
      <trkpt lat="47.90105" lon="-4.00189">
        <ele>14</ele>
        <time>2021-11-16T16:47:44Z</time>
      </trkpt>
      <trkpt lat="47.90119" lon="-4.00151">
        <ele>12</ele>
        <time>2021-11-16T16:48:07Z</time>
      </trkpt>
      <trkpt lat="47.90125" lon="-4.00136">
        <ele>12</ele>
        <time>2021-11-16T16:48:17Z</time>
      </trkpt>
      <trkpt lat="47.90114" lon="-4.00111">
        <ele>12</ele>
        <time>2021-11-16T16:48:33Z</time>
      </trkpt>
      <trkpt lat="47.90123" lon="-4.00063">
        <ele>12</ele>
        <time>2021-11-16T16:49:00Z</time>
      </trkpt>
      <trkpt lat="47.90106" lon="-4.00038">
        <ele>12</ele>
        <time>2021-11-16T16:49:19Z</time>
      </trkpt>
      <trkpt lat="47.90054" lon="-4.0005">
        <ele>11</ele>
        <time>2021-11-16T16:50:01Z</time>
      </trkpt>
      <trkpt lat="47.89993" lon="-4.00086">
        <ele>9</ele>
        <time>2021-11-16T16:50:53Z</time>
      </trkpt>
      <trkpt lat="47.89967" lon="-4.00102">
        <ele>9</ele>
        <time>2021-11-16T16:51:16Z</time>
      </trkpt>
      <trkpt lat="47.89897" lon="-4.00097">
        <ele>8</ele>
        <time>2021-11-16T16:52:12Z</time>
      </trkpt>
      <trkpt lat="47.89893" lon="-3.99985">
        <ele>7</ele>
        <time>2021-11-16T16:53:12Z</time>
      </trkpt>
      <trkpt lat="47.89897" lon="-3.99975">
        <ele>8</ele>
        <time>2021-11-16T16:53:18Z</time>
      </trkpt>
      <trkpt lat="47.89915" lon="-3.99977">
        <ele>9</ele>
        <time>2021-11-16T16:53:33Z</time>
      </trkpt>
      <trkpt lat="47.8993" lon="-3.99983">
        <ele>9</ele>
        <time>2021-11-16T16:53:45Z</time>
      </trkpt>
      <trkpt lat="47.89982" lon="-3.99938">
        <ele>12</ele>
        <time>2021-11-16T16:54:33Z</time>
      </trkpt>
      <trkpt lat="47.90026" lon="-3.99917">
        <ele>15</ele>
        <time>2021-11-16T16:55:10Z</time>
      </trkpt>
      <trkpt lat="47.90129" lon="-3.99951">
        <ele>16</ele>
        <time>2021-11-16T16:56:35Z</time>
      </trkpt>
      <trkpt lat="47.90179" lon="-3.99941">
        <ele>18</ele>
        <time>2021-11-16T16:57:15Z</time>
      </trkpt>
      <trkpt lat="47.90217" lon="-3.99919">
        <ele>22</ele>
        <time>2021-11-16T16:57:48Z</time>
      </trkpt>
      <trkpt lat="47.9019" lon="-3.99853">
        <ele>24</ele>
        <time>2021-11-16T16:58:29Z</time>
      </trkpt>
      <trkpt lat="47.90073" lon="-3.99812">
        <ele>22</ele>
        <time>2021-11-16T17:00:06Z</time>
      </trkpt>
      <trkpt lat="47.90013" lon="-3.99819">
        <ele>19</ele>
        <time>2021-11-16T17:00:54Z</time>
      </trkpt>
      <trkpt lat="47.89959" lon="-3.99773">
        <ele>16</ele>
        <time>2021-11-16T17:01:44Z</time>
      </trkpt>
      <trkpt lat="47.89949" lon="-3.99773">
        <ele>16</ele>
        <time>2021-11-16T17:01:52Z</time>
      </trkpt>
      <trkpt lat="47.89908" lon="-3.99819">
        <ele>13</ele>
        <time>2021-11-16T17:02:33Z</time>
      </trkpt>
      <trkpt lat="47.89856" lon="-3.99868">
        <ele>9</ele>
        <time>2021-11-16T17:03:22Z</time>
      </trkpt>
      <trkpt lat="47.89841" lon="-3.99778">
        <ele>8</ele>
        <time>2021-11-16T17:04:12Z</time>
      </trkpt>
      <trkpt lat="47.89832" lon="-3.99721">
        <ele>6</ele>
        <time>2021-11-16T17:04:43Z</time>
      </trkpt>
      <trkpt lat="47.89831" lon="-3.99627">
        <ele>7</ele>
        <time>2021-11-16T17:05:34Z</time>
      </trkpt>
      <trkpt lat="47.89846" lon="-3.99523">
        <ele>7</ele>
        <time>2021-11-16T17:06:31Z</time>
      </trkpt>
      <trkpt lat="47.89876" lon="-3.99424">
        <ele>6</ele>
        <time>2021-11-16T17:07:29Z</time>
      </trkpt>
      <trkpt lat="47.89818" lon="-3.99364">
        <ele>9</ele>
        <time>2021-11-16T17:08:26Z</time>
      </trkpt>
      <trkpt lat="47.89709" lon="-3.99283">
        <ele>13</ele>
        <time>2021-11-16T17:10:03Z</time>
      </trkpt>
      <trkpt lat="47.89698" lon="-3.99228">
        <ele>10</ele>
        <time>2021-11-16T17:10:34Z</time>
      </trkpt>
      <trkpt lat="47.89704" lon="-3.99162">
        <ele>5</ele>
        <time>2021-11-16T17:11:10Z</time>
      </trkpt>
      <trkpt lat="47.89713" lon="-3.99032">
        <ele>7</ele>
        <time>2021-11-16T17:12:20Z</time>
      </trkpt>
      <trkpt lat="47.89729" lon="-3.99011">
        <ele>8</ele>
        <time>2021-11-16T17:12:37Z</time>
      </trkpt>
      <trkpt lat="47.8976" lon="-3.99025">
        <ele>8</ele>
        <time>2021-11-16T17:13:03Z</time>
      </trkpt>
      <trkpt lat="47.89794" lon="-3.99068">
        <ele>7</ele>
        <time>2021-11-16T17:13:39Z</time>
      </trkpt>
      <trkpt lat="47.89798" lon="-3.99074">
        <ele>7</ele>
        <time>2021-11-16T17:13:43Z</time>
      </trkpt>
      <trkpt lat="47.89833" lon="-3.99056">
        <ele>9</ele>
        <time>2021-11-16T17:14:13Z</time>
      </trkpt>
      <trkpt lat="47.8988" lon="-3.99019">
        <ele>10</ele>
        <time>2021-11-16T17:14:55Z</time>
      </trkpt>
      <trkpt lat="47.89929" lon="-3.98992">
        <ele>11</ele>
        <time>2021-11-16T17:15:37Z</time>
      </trkpt>
      <trkpt lat="47.89962" lon="-3.98954">
        <ele>11</ele>
        <time>2021-11-16T17:16:11Z</time>
      </trkpt>
      <trkpt lat="47.89988" lon="-3.98916">
        <ele>12</ele>
        <time>2021-11-16T17:16:40Z</time>
      </trkpt>
      <trkpt lat="47.90068" lon="-3.98934">
        <ele>10</ele>
        <time>2021-11-16T17:17:44Z</time>
      </trkpt>
      <trkpt lat="47.90154" lon="-3.98946">
        <ele>8</ele>
        <time>2021-11-16T17:18:54Z</time>
      </trkpt>
      <trkpt lat="47.90181" lon="-3.98946">
        <ele>8</ele>
        <time>2021-11-16T17:19:15Z</time>
      </trkpt>
      <trkpt lat="47.9024" lon="-3.98994">
        <ele>8</ele>
        <time>2021-11-16T17:20:09Z</time>
      </trkpt>
      <trkpt lat="47.90197" lon="-3.98954">
        <ele>9</ele>
        <time>2021-11-16T17:20:50Z</time>
      </trkpt>
      <trkpt lat="47.90104" lon="-3.98936">
        <ele>10</ele>
        <time>2021-11-16T17:22:05Z</time>
      </trkpt>
      <trkpt lat="47.90007" lon="-3.9892">
        <ele>12</ele>
        <time>2021-11-16T17:23:23Z</time>
      </trkpt>
      <trkpt lat="47.89982" lon="-3.98913">
        <ele>12</ele>
        <time>2021-11-16T17:23:43Z</time>
      </trkpt>
      <trkpt lat="47.89946" lon="-3.9897">
        <ele>11</ele>
        <time>2021-11-16T17:24:25Z</time>
      </trkpt>
      <trkpt lat="47.8991" lon="-3.99">
        <ele>11</ele>
        <time>2021-11-16T17:24:58Z</time>
      </trkpt>
      <trkpt lat="47.89819" lon="-3.99066">
        <ele>8</ele>
        <time>2021-11-16T17:26:19Z</time>
      </trkpt>
      <trkpt lat="47.89789" lon="-3.99066">
        <ele>7</ele>
        <time>2021-11-16T17:26:43Z</time>
      </trkpt>
      <trkpt lat="47.89742" lon="-3.99011">
        <ele>8</ele>
        <time>2021-11-16T17:27:31Z</time>
      </trkpt>
      <trkpt lat="47.89724" lon="-3.99017">
        <ele>8</ele>
        <time>2021-11-16T17:27:46Z</time>
      </trkpt>
      <trkpt lat="47.89676" lon="-3.99002">
        <ele>8</ele>
        <time>2021-11-16T17:28:25Z</time>
      </trkpt>
      <trkpt lat="47.89626" lon="-3.98986">
        <ele>5</ele>
        <time>2021-11-16T17:29:06Z</time>
      </trkpt>
      <trkpt lat="47.8959" lon="-3.98948">
        <ele>4</ele>
        <time>2021-11-16T17:29:41Z</time>
      </trkpt>
      <trkpt lat="47.89569" lon="-3.98896">
        <ele>3</ele>
        <time>2021-11-16T17:30:14Z</time>
      </trkpt>
      <trkpt lat="47.89562" lon="-3.98865">
        <ele>3</ele>
        <time>2021-11-16T17:30:32Z</time>
      </trkpt>
      <trkpt lat="47.8956" lon="-3.98836">
        <ele>3</ele>
        <time>2021-11-16T17:30:47Z</time>
      </trkpt>
      <trkpt lat="47.89564" lon="-3.98744">
        <ele>4</ele>
        <time>2021-11-16T17:31:37Z</time>
      </trkpt>
      <trkpt lat="47.89561" lon="-3.98697">
        <ele>4</ele>
        <time>2021-11-16T17:32:02Z</time>
      </trkpt>
      <trkpt lat="47.8956" lon="-3.98677">
        <ele>4</ele>
        <time>2021-11-16T17:32:13Z</time>
      </trkpt>
      <trkpt lat="47.89587" lon="-3.98589">
        <ele>6</ele>
        <time>2021-11-16T17:33:05Z</time>
      </trkpt>
      <trkpt lat="47.89557" lon="-3.9853">
        <ele>8</ele>
        <time>2021-11-16T17:33:45Z</time>
      </trkpt>
      <trkpt lat="47.89532" lon="-3.98516">
        <ele>8</ele>
        <time>2021-11-16T17:34:06Z</time>
      </trkpt>
      <trkpt lat="47.89493" lon="-3.98509">
        <ele>6</ele>
        <time>2021-11-16T17:34:37Z</time>
      </trkpt>
      <trkpt lat="47.89447" lon="-3.98472">
        <ele>6</ele>
        <time>2021-11-16T17:35:19Z</time>
      </trkpt>
      <trkpt lat="47.89397" lon="-3.98379">
        <ele>7</ele>
        <time>2021-11-16T17:36:23Z</time>
      </trkpt>
      <trkpt lat="47.89383" lon="-3.9834">
        <ele>6</ele>
        <time>2021-11-16T17:36:47Z</time>
      </trkpt>
      <trkpt lat="47.89334" lon="-3.98268">
        <ele>1</ele>
        <time>2021-11-16T17:37:42Z</time>
      </trkpt>
      <trkpt lat="47.89331" lon="-3.9825">
        <ele>1</ele>
        <time>2021-11-16T17:37:52Z</time>
      </trkpt>
      <trkpt lat="47.89387" lon="-3.98203">
        <ele>5</ele>
        <time>2021-11-16T17:38:43Z</time>
      </trkpt>
      <trkpt lat="47.89405" lon="-3.98165">
        <ele>6</ele>
        <time>2021-11-16T17:39:08Z</time>
      </trkpt>
      <trkpt lat="47.89451" lon="-3.98099">
        <ele>5</ele>
        <time>2021-11-16T17:40:00Z</time>
      </trkpt>
      <trkpt lat="47.89483" lon="-3.98047">
        <ele>6</ele>
        <time>2021-11-16T17:40:37Z</time>
      </trkpt>
      <trkpt lat="47.89551" lon="-3.98086">
        <ele>9</ele>
        <time>2021-11-16T17:41:36Z</time>
      </trkpt>
      <trkpt lat="47.89581" lon="-3.98103">
        <ele>10</ele>
        <time>2021-11-16T17:42:01Z</time>
      </trkpt>
      <trkpt lat="47.89628" lon="-3.98093">
        <ele>6</ele>
        <time>2021-11-16T17:42:39Z</time>
      </trkpt>
      <trkpt lat="47.89654" lon="-3.98151">
        <ele>6</ele>
        <time>2021-11-16T17:43:17Z</time>
      </trkpt>
      <trkpt lat="47.89706" lon="-3.98166">
        <ele>6</ele>
        <time>2021-11-16T17:43:59Z</time>
      </trkpt>
      <trkpt lat="47.89743" lon="-3.9817">
        <ele>7</ele>
        <time>2021-11-16T17:44:29Z</time>
      </trkpt>
      <trkpt lat="47.89801" lon="-3.98117">
        <ele>5</ele>
        <time>2021-11-16T17:45:23Z</time>
      </trkpt>
      <trkpt lat="47.8986" lon="-3.98135">
        <ele>6</ele>
        <time>2021-11-16T17:46:12Z</time>
      </trkpt>
      <trkpt lat="47.89899" lon="-3.9816">
        <ele>8</ele>
        <time>2021-11-16T17:46:46Z</time>
      </trkpt>
      <trkpt lat="47.89816" lon="-3.98111">
        <ele>4</ele>
        <time>2021-11-16T17:47:57Z</time>
      </trkpt>
      <trkpt lat="47.89736" lon="-3.98169">
        <ele>7</ele>
        <time>2021-11-16T17:49:08Z</time>
      </trkpt>
      <trkpt lat="47.89662" lon="-3.98159">
        <ele>5</ele>
        <time>2021-11-16T17:50:08Z</time>
      </trkpt>
      <trkpt lat="47.89634" lon="-3.98103">
        <ele>6</ele>
        <time>2021-11-16T17:50:45Z</time>
      </trkpt>
      <trkpt lat="47.89572" lon="-3.98098">
        <ele>10</ele>
        <time>2021-11-16T17:51:35Z</time>
      </trkpt>
      <trkpt lat="47.89494" lon="-3.98049">
        <ele>7</ele>
        <time>2021-11-16T17:52:43Z</time>
      </trkpt>
      <trkpt lat="47.89455" lon="-3.98086">
        <ele>5</ele>
        <time>2021-11-16T17:53:20Z</time>
      </trkpt>
      <trkpt lat="47.89411" lon="-3.98152">
        <ele>6</ele>
        <time>2021-11-16T17:54:10Z</time>
      </trkpt>
      <trkpt lat="47.89386" lon="-3.98186">
        <ele>5</ele>
        <time>2021-11-16T17:54:37Z</time>
      </trkpt>
      <trkpt lat="47.89393" lon="-3.9822">
        <ele>6</ele>
        <time>2021-11-16T17:54:56Z</time>
      </trkpt>
      <trkpt lat="47.89427" lon="-3.983">
        <ele>10</ele>
        <time>2021-11-16T17:55:47Z</time>
      </trkpt>
      <trkpt lat="47.89426" lon="-3.98331">
        <ele>11</ele>
        <time>2021-11-16T17:56:04Z</time>
      </trkpt>
      <trkpt lat="47.89404" lon="-3.9837">
        <ele>8</ele>
        <time>2021-11-16T17:56:31Z</time>
      </trkpt>
      <trkpt lat="47.89404" lon="-3.98393">
        <ele>7</ele>
        <time>2021-11-16T17:56:43Z</time>
      </trkpt>
      <trkpt lat="47.89434" lon="-3.98454">
        <ele>7</ele>
        <time>2021-11-16T17:57:24Z</time>
      </trkpt>
      <trkpt lat="47.89486" lon="-3.98502">
        <ele>6</ele>
        <time>2021-11-16T17:58:13Z</time>
      </trkpt>
      <trkpt lat="47.89521" lon="-3.98511">
        <ele>7</ele>
        <time>2021-11-16T17:58:41Z</time>
      </trkpt>
      <trkpt lat="47.89566" lon="-3.98537">
        <ele>8</ele>
        <time>2021-11-16T17:59:20Z</time>
      </trkpt>
      <trkpt lat="47.89589" lon="-3.98576">
        <ele>7</ele>
        <time>2021-11-16T17:59:48Z</time>
      </trkpt>
      <trkpt lat="47.89569" lon="-3.98652">
        <ele>5</ele>
        <time>2021-11-16T18:00:32Z</time>
      </trkpt>
      <trkpt lat="47.89558" lon="-3.9869">
        <ele>4</ele>
        <time>2021-11-16T18:00:54Z</time>
      </trkpt>
      <trkpt lat="47.89566" lon="-3.98812">
        <ele>3</ele>
        <time>2021-11-16T18:02:00Z</time>
      </trkpt>
      <trkpt lat="47.89559" lon="-3.98855">
        <ele>3</ele>
        <time>2021-11-16T18:02:23Z</time>
      </trkpt>
      <trkpt lat="47.89577" lon="-3.98916">
        <ele>4</ele>
        <time>2021-11-16T18:02:59Z</time>
      </trkpt>
      <trkpt lat="47.89614" lon="-3.98976">
        <ele>5</ele>
        <time>2021-11-16T18:03:43Z</time>
      </trkpt>
      <trkpt lat="47.89682" lon="-3.99009">
        <ele>8</ele>
        <time>2021-11-16T18:04:40Z</time>
      </trkpt>
      <trkpt lat="47.89714" lon="-3.99015">
        <ele>8</ele>
        <time>2021-11-16T18:05:06Z</time>
      </trkpt>
      <trkpt lat="47.89714" lon="-3.99062">
        <ele>5</ele>
        <time>2021-11-16T18:05:31Z</time>
      </trkpt>
      <trkpt lat="47.897" lon="-3.992">
        <ele>8</ele>
        <time>2021-11-16T18:06:46Z</time>
      </trkpt>
      <trkpt lat="47.89702" lon="-3.99273">
        <ele>12</ele>
        <time>2021-11-16T18:07:25Z</time>
      </trkpt>
      <trkpt lat="47.89647" lon="-3.99225">
        <ele>8</ele>
        <time>2021-11-16T18:08:16Z</time>
      </trkpt>
      <trkpt lat="47.89572" lon="-3.99189">
        <ele>5</ele>
        <time>2021-11-16T18:09:19Z</time>
      </trkpt>
      <trkpt lat="47.895" lon="-3.99157">
        <ele>5</ele>
        <time>2021-11-16T18:10:20Z</time>
      </trkpt>
      <trkpt lat="47.89473" lon="-3.99163">
        <ele>7</ele>
        <time>2021-11-16T18:10:41Z</time>
      </trkpt>
      <trkpt lat="47.89443" lon="-3.99142">
        <ele>6</ele>
        <time>2021-11-16T18:11:08Z</time>
      </trkpt>
      <trkpt lat="47.89373" lon="-3.99072">
        <ele>3</ele>
        <time>2021-11-16T18:12:16Z</time>
      </trkpt>
      <trkpt lat="47.89336" lon="-3.99026">
        <ele>3</ele>
        <time>2021-11-16T18:12:54Z</time>
      </trkpt>
      <trkpt lat="47.89315" lon="-3.98955">
        <ele>3</ele>
        <time>2021-11-16T18:13:36Z</time>
      </trkpt>
      <trkpt lat="47.89338" lon="-3.98914">
        <ele>1</ele>
        <time>2021-11-16T18:14:04Z</time>
      </trkpt>
      <trkpt lat="47.89344" lon="-3.98893">
        <ele>1</ele>
        <time>2021-11-16T18:14:17Z</time>
      </trkpt>
      <trkpt lat="47.89289" lon="-3.98855">
        <ele>2</ele>
        <time>2021-11-16T18:15:05Z</time>
      </trkpt>
      <trkpt lat="47.89216" lon="-3.98797">
        <ele>3</ele>
        <time>2021-11-16T18:16:11Z</time>
      </trkpt>
      <trkpt lat="47.89135" lon="-3.98759">
        <ele>5</ele>
        <time>2021-11-16T18:17:19Z</time>
      </trkpt>
      <trkpt lat="47.8909" lon="-3.98733">
        <ele>6</ele>
        <time>2021-11-16T18:17:58Z</time>
      </trkpt>
      <trkpt lat="47.8904" lon="-3.98663">
        <ele>4</ele>
        <time>2021-11-16T18:18:53Z</time>
      </trkpt>
      <trkpt lat="47.89018" lon="-3.98579">
        <ele>3</ele>
        <time>2021-11-16T18:19:41Z</time>
      </trkpt>
      <trkpt lat="47.89" lon="-3.98508">
        <ele>4</ele>
        <time>2021-11-16T18:20:22Z</time>
      </trkpt>
      <trkpt lat="47.88996" lon="-3.98458">
        <ele>3</ele>
        <time>2021-11-16T18:20:49Z</time>
      </trkpt>
      <trkpt lat="47.88988" lon="-3.98395">
        <ele>2</ele>
        <time>2021-11-16T18:21:24Z</time>
      </trkpt>
      <trkpt lat="47.88967" lon="-3.98338">
        <ele>2</ele>
        <time>2021-11-16T18:21:59Z</time>
      </trkpt>
      <trkpt lat="47.88938" lon="-3.98275">
        <ele>2</ele>
        <time>2021-11-16T18:22:40Z</time>
      </trkpt>
      <trkpt lat="47.88896" lon="-3.98202">
        <ele>3</ele>
        <time>2021-11-16T18:23:31Z</time>
      </trkpt>
      <trkpt lat="47.88847" lon="-3.98171">
        <ele>7</ele>
        <time>2021-11-16T18:24:14Z</time>
      </trkpt>
    </trkseg>
  </trk>
</gpx>